createdAt,value
2023-01-19T00:01:11.566Z,9.52
2023-01-19T00:03:38.162Z,8.05
2023-01-19T00:06:04.834Z,7.25
2023-01-19T00:08:31.773Z,8.63
2023-01-19T00:10:58.380Z,8.00
2023-01-19T00:13:24.990Z,7.63
2023-01-19T00:15:51.657Z,8.13
2023-01-19T00:18:18.298Z,7.82
2023-01-19T00:20:44.856Z,6.03
2023-01-19T00:23:11.453Z,8.95
2023-01-19T00:25:42.586Z,13.13
2023-01-19T00:28:09.367Z,9.95
2023-01-19T00:30:36.032Z,8.35
2023-01-19T00:33:03.197Z,8.80
2023-01-19T00:35:29.941Z,6.55
2023-01-19T00:37:56.611Z,7.05
2023-01-19T00:40:23.378Z,9.75
2023-01-19T00:42:50.005Z,5.47
2023-01-19T00:45:16.778Z,9.70
2023-01-19T00:47:43.423Z,9.45
2023-01-19T00:50:11.639Z,10.13
2023-01-19T00:52:38.716Z,7.55
2023-01-19T00:55:05.304Z,7.38
2023-01-19T00:57:31.932Z,9.32
2023-01-19T00:59:58.826Z,9.05
2023-01-19T01:02:25.614Z,7.68
2023-01-19T01:04:55.005Z,9.15
2023-01-19T01:07:21.712Z,8.35
2023-01-19T01:09:48.365Z,10.43
2023-01-19T01:12:15.200Z,10.07
2023-01-19T01:14:41.839Z,5.15
2023-01-19T01:17:11.380Z,7.05
2023-01-19T01:19:38.305Z,6.95
2023-01-19T01:22:05.208Z,5.70
2023-01-19T01:24:32.046Z,7.13
2023-01-19T01:26:58.685Z,10.57
2023-01-19T01:29:25.305Z,7.60
2023-01-19T01:31:52.124Z,6.45
2023-01-19T01:34:18.804Z,5.15
2023-01-19T01:36:45.404Z,10.27
2023-01-19T01:39:11.975Z,5.05
2023-01-19T01:41:38.609Z,9.00
2023-01-19T01:44:08.272Z,8.35
2023-01-19T01:46:35.162Z,6.18
2023-01-19T01:49:01.821Z,7.00
2023-01-19T01:51:28.761Z,6.10
2023-01-19T01:53:55.388Z,8.98
2023-01-19T01:56:22.105Z,9.00
2023-01-19T01:58:48.804Z,7.40
2023-01-19T02:01:34.493Z,6.03
2023-01-19T02:04:01.188Z,7.18
2023-01-19T02:06:27.804Z,8.38
2023-01-19T02:09:13.061Z,6.18
2023-01-19T02:11:58.592Z,5.57
2023-01-19T02:14:25.286Z,9.65
2023-01-19T02:16:51.911Z,6.18
2023-01-19T02:19:18.500Z,6.07
2023-01-19T02:21:45.085Z,8.38
2023-01-19T02:24:11.752Z,5.45
2023-01-19T02:26:38.560Z,4.72
2023-01-19T02:29:05.173Z,6.18
2023-01-19T02:31:31.753Z,8.85
2023-01-19T02:33:58.379Z,5.15
2023-01-19T02:36:25.940Z,5.95
2023-01-19T02:38:52.624Z,7.80
2023-01-19T02:41:19.253Z,8.35
2023-01-19T02:43:45.851Z,5.72
2023-01-19T02:46:12.482Z,5.10
2023-01-19T02:48:39.340Z,6.38
2023-01-19T02:51:05.908Z,7.47
2023-01-19T02:53:32.616Z,5.25
2023-01-19T02:55:59.211Z,5.88
2023-01-19T02:58:25.831Z,8.48
2023-01-19T03:00:52.537Z,7.43
2023-01-19T03:03:19.535Z,8.73
2023-01-19T03:05:46.113Z,6.05
2023-01-19T03:08:12.745Z,5.07
2023-01-19T03:10:42.361Z,7.38
2023-01-19T03:13:08.965Z,5.50
2023-01-19T03:15:35.608Z,5.63
2023-01-19T03:18:02.287Z,9.43
2023-01-19T03:20:29.069Z,6.85
2023-01-19T03:22:55.817Z,9.05
2023-01-19T03:25:22.415Z,5.05
2023-01-19T03:27:49.029Z,5.38
2023-01-19T03:30:15.618Z,7.47
2023-01-19T03:32:42.261Z,9.02
2023-01-19T03:35:08.834Z,4.75
2023-01-19T03:37:35.428Z,6.47
2023-01-19T03:40:02.208Z,6.13
2023-01-19T03:42:28.988Z,5.10
2023-01-19T03:44:56.503Z,6.25
2023-01-19T03:47:23.089Z,6.10
2023-01-19T03:49:50.271Z,8.40
2023-01-19T03:52:16.902Z,6.00
2023-01-19T03:54:43.509Z,9.82
2023-01-19T03:57:10.124Z,6.72
2023-01-19T03:59:36.706Z,4.30
2023-01-19T04:02:03.336Z,8.02
2023-01-19T04:04:29.946Z,4.63
2023-01-19T04:06:57.794Z,7.82
2023-01-19T04:09:25.667Z,8.30
2023-01-19T04:11:52.717Z,5.35
2023-01-19T04:14:19.312Z,9.25
2023-01-19T04:16:45.935Z,5.72
2023-01-19T04:19:12.657Z,6.57
2023-01-19T04:21:39.706Z,6.25
2023-01-19T04:24:06.306Z,9.27
2023-01-19T04:26:32.949Z,6.85
2023-01-19T04:28:59.591Z,4.63
2023-01-19T04:31:26.198Z,9.75
2023-01-19T04:33:52.879Z,14.52
2023-01-19T04:36:19.483Z,4.90
2023-01-19T04:38:46.666Z,6.18
2023-01-19T04:41:13.366Z,5.68
2023-01-19T04:43:39.995Z,6.38
2023-01-19T04:46:07.146Z,7.05
2023-01-19T04:48:33.772Z,7.95
2023-01-19T04:51:00.474Z,3.45
2023-01-19T04:53:27.070Z,4.35
2023-01-19T04:55:54.064Z,6.20
2023-01-19T04:58:20.706Z,8.18
2023-01-19T05:00:47.573Z,6.50
2023-01-19T05:03:14.254Z,7.03
2023-01-19T05:05:40.922Z,6.75
2023-01-19T05:08:07.478Z,8.63
2023-01-19T05:10:34.071Z,5.18
2023-01-19T05:13:00.934Z,5.72
2023-01-19T05:15:27.858Z,5.95
2023-01-19T05:17:55.214Z,4.75
2023-01-19T05:20:21.807Z,6.45
2023-01-19T05:22:48.398Z,5.10
2023-01-19T05:25:14.995Z,6.80
2023-01-19T05:27:41.559Z,6.78
2023-01-19T05:30:08.152Z,6.35
2023-01-19T05:32:34.756Z,7.00
2023-01-19T05:35:01.899Z,4.53
2023-01-19T05:37:28.504Z,5.10
2023-01-19T05:39:55.172Z,5.50
2023-01-19T05:42:21.805Z,6.05
2023-01-19T05:44:48.561Z,7.25
2023-01-19T05:47:15.131Z,7.05
2023-01-19T05:49:41.723Z,5.47
2023-01-19T05:52:08.464Z,5.80
2023-01-19T05:54:35.157Z,8.38
2023-01-19T05:57:03.028Z,7.22
2023-01-19T05:59:29.689Z,5.45
2023-01-19T06:01:57.155Z,8.50
2023-01-19T06:04:23.841Z,9.55
2023-01-19T06:06:50.453Z,8.40
2023-01-19T06:09:20.155Z,6.90
2023-01-19T06:11:46.872Z,7.30
2023-01-19T06:14:13.474Z,7.47
2023-01-19T06:16:40.205Z,7.50
2023-01-19T06:19:06.851Z,8.30
2023-01-19T06:21:33.470Z,8.00
2023-01-19T06:24:00.064Z,6.35
2023-01-19T06:26:26.665Z,5.30
2023-01-19T06:28:53.294Z,9.13
2023-01-19T06:31:19.964Z,6.60
2023-01-19T06:33:46.592Z,6.38
2023-01-19T06:36:13.182Z,5.40
2023-01-19T06:38:39.978Z,6.97
2023-01-19T06:41:06.553Z,13.18
2023-01-19T06:43:33.254Z,6.20
2023-01-19T06:46:03.977Z,7.63
2023-01-19T06:48:30.806Z,7.35
2023-01-19T06:50:59.539Z,7.18
2023-01-19T06:53:27.966Z,8.80
2023-01-19T06:55:54.760Z,6.70
2023-01-19T06:58:21.487Z,7.05
2023-01-19T07:00:51.680Z,4.72
2023-01-19T07:03:19.168Z,6.50
2023-01-19T07:05:45.834Z,7.15
2023-01-19T07:08:12.895Z,6.65
2023-01-19T07:11:22.983Z,7.55
2023-01-19T07:13:26.205Z,6.22
2023-01-19T07:15:52.829Z,5.90
2023-01-19T07:18:19.563Z,10.13
2023-01-19T07:20:49.106Z,7.47
2023-01-19T07:23:15.881Z,8.05
2023-01-19T07:25:42.438Z,7.68
2023-01-19T07:28:09.187Z,6.47
2023-01-19T07:30:35.881Z,6.25
2023-01-19T07:33:03.358Z,11.35
2023-01-19T07:35:30.166Z,10.65
2023-01-19T07:37:56.813Z,7.90
2023-01-19T07:40:24.049Z,8.95
2023-01-19T07:42:50.980Z,10.88
2023-01-19T07:45:17.677Z,6.78
2023-01-19T07:47:44.452Z,9.27
2023-01-19T07:50:11.086Z,7.07
2023-01-19T07:52:37.724Z,8.13
2023-01-19T07:55:04.305Z,6.30
2023-01-19T07:57:31.172Z,7.75
2023-01-19T07:59:58.026Z,5.45
2023-01-19T08:02:25.541Z,6.93
2023-01-19T08:04:52.314Z,5.35
2023-01-19T08:07:19.176Z,8.15
2023-01-19T08:09:45.785Z,5.28
2023-01-19T08:12:12.417Z,6.22
2023-01-19T08:14:39.026Z,7.45
2023-01-19T08:17:05.631Z,7.28
2023-01-19T08:19:32.254Z,7.32
2023-01-19T08:21:59.896Z,8.35
2023-01-19T08:24:29.069Z,8.82
2023-01-19T08:26:55.708Z,6.90
2023-01-19T08:29:22.279Z,8.38
2023-01-19T08:31:49.027Z,8.02
2023-01-19T08:34:16.766Z,7.50
2023-01-19T08:36:43.367Z,8.23
2023-01-19T08:39:15.566Z,7.13
2023-01-19T08:41:46.206Z,7.18
2023-01-19T08:44:13.973Z,6.93
2023-01-19T08:46:40.631Z,7.85
2023-01-19T08:49:07.291Z,7.38
2023-01-19T08:51:34.091Z,9.15
2023-01-19T08:54:01.955Z,5.88
2023-01-19T08:56:28.591Z,10.85
2023-01-19T08:59:08.128Z,8.23
2023-01-19T09:01:37.143Z,5.75
2023-01-19T09:04:04.064Z,6.25
2023-01-19T09:06:30.712Z,10.00
2023-01-19T09:08:57.767Z,6.75
2023-01-19T09:11:24.457Z,6.53
2023-01-19T09:13:51.214Z,8.45
2023-01-19T09:16:18.090Z,8.35
2023-01-19T09:18:45.943Z,6.38
2023-01-19T09:21:13.785Z,6.57
2023-01-19T09:23:40.720Z,8.73
2023-01-19T09:26:10.216Z,7.72
2023-01-19T09:28:39.651Z,8.82
2023-01-19T09:31:06.684Z,11.90
2023-01-19T09:33:33.987Z,8.90
2023-01-19T09:36:02.026Z,8.32
2023-01-19T09:38:31.565Z,10.85
2023-01-19T09:40:59.093Z,8.27
2023-01-19T09:43:25.994Z,6.78
2023-01-19T09:45:52.571Z,9.27
2023-01-19T09:48:19.201Z,9.20
2023-01-19T09:50:47.493Z,8.70
2023-01-19T09:53:14.314Z,7.75
2023-01-19T09:55:41.207Z,10.95
2023-01-19T09:58:07.831Z,9.10
2023-01-19T10:00:34.570Z,7.28
2023-01-19T10:03:02.794Z,6.38
2023-01-19T10:05:29.680Z,8.38
2023-01-19T10:07:56.379Z,6.00
2023-01-19T10:10:23.017Z,7.57
2023-01-19T10:12:51.778Z,7.22
2023-01-19T10:15:18.579Z,11.20
2023-01-19T10:17:45.180Z,6.82
2023-01-19T10:20:11.806Z,7.03
2023-01-19T10:22:39.738Z,10.40
2023-01-19T10:25:06.354Z,7.20
2023-01-19T10:27:34.209Z,8.20
2023-01-19T10:30:00.842Z,7.47
2023-01-19T10:32:30.413Z,5.45
2023-01-19T10:34:58.450Z,8.13
2023-01-19T10:37:25.241Z,7.22
2023-01-19T10:39:51.876Z,6.35
2023-01-19T10:42:18.525Z,7.13
2023-01-19T10:44:45.733Z,8.25
2023-01-19T10:47:12.338Z,6.07
2023-01-19T10:49:39.066Z,10.70
2023-01-19T10:52:05.740Z,6.60
2023-01-19T10:54:34.407Z,6.45
2023-01-19T10:57:01.038Z,4.63
2023-01-19T10:59:27.697Z,6.97
2023-01-19T11:01:54.468Z,5.80
2023-01-19T11:04:22.440Z,5.50
2023-01-19T11:06:49.057Z,8.20
2023-01-19T11:09:15.669Z,8.63
2023-01-19T11:11:42.292Z,8.93
2023-01-19T11:14:09.131Z,7.47
2023-01-19T11:16:38.041Z,6.50
2023-01-19T11:19:05.156Z,8.05
2023-01-19T11:21:31.820Z,12.07
2023-01-19T11:23:58.632Z,8.75
2023-01-19T11:26:25.321Z,5.60
2023-01-19T11:28:53.145Z,6.65
2023-01-19T11:31:19.896Z,7.15
2023-01-19T11:33:47.080Z,7.10
2023-01-19T11:36:14.622Z,6.65
2023-01-19T11:38:43.174Z,8.38
2023-01-19T11:41:12.434Z,6.95
2023-01-19T11:43:48.701Z,6.10
2023-01-19T11:46:16.310Z,6.93
2023-01-19T11:48:42.936Z,8.38
2023-01-19T11:51:09.539Z,6.50
2023-01-19T11:53:36.437Z,5.75
2023-01-19T11:56:04.690Z,5.88
2023-01-19T11:58:31.449Z,8.65
2023-01-19T12:00:58.117Z,7.13
2023-01-19T12:03:25.063Z,10.85
2023-01-19T12:05:51.772Z,8.00
2023-01-19T12:08:18.372Z,8.18
2023-01-19T12:10:45.047Z,8.13
2023-01-19T12:13:11.792Z,9.90
2023-01-19T12:15:38.368Z,10.23
2023-01-19T12:18:05.289Z,11.25
2023-01-19T12:20:32.119Z,8.15
2023-01-19T12:22:59.742Z,6.97
2023-01-19T12:25:26.609Z,8.13
2023-01-19T12:27:53.177Z,6.90
2023-01-19T12:30:19.813Z,6.50
2023-01-19T12:32:47.638Z,5.25
2023-01-19T12:35:14.248Z,7.20
2023-01-19T12:37:40.882Z,8.20
2023-01-19T12:40:07.561Z,6.25
2023-01-19T12:42:35.301Z,10.25
2023-01-19T12:45:01.991Z,8.45
2023-01-19T12:47:28.593Z,8.70
2023-01-19T12:49:55.321Z,10.93
2023-01-19T12:52:21.941Z,9.48
2023-01-19T12:54:48.589Z,8.07
2023-01-19T12:57:15.287Z,10.00
2023-01-19T12:59:41.890Z,11.77
2023-01-19T13:02:08.615Z,9.38
2023-01-19T13:04:36.537Z,12.25
2023-01-19T13:07:05.777Z,8.65
2023-01-19T13:09:32.468Z,7.47
2023-01-19T13:12:01.056Z,6.63
2023-01-19T13:14:28.025Z,9.68
2023-01-19T13:16:54.605Z,8.35
2023-01-19T13:19:21.237Z,7.68
2023-01-19T13:21:47.918Z,9.80
2023-01-19T13:24:17.781Z,9.32
2023-01-19T13:26:44.475Z,7.57
2023-01-19T13:29:11.091Z,6.45
2023-01-19T13:31:37.740Z,11.13
2023-01-19T13:34:04.483Z,6.18
2023-01-19T13:36:31.107Z,6.43
2023-01-19T13:38:57.746Z,14.80
2023-01-19T13:41:25.051Z,7.85
2023-01-19T13:43:51.872Z,8.35
2023-01-19T13:46:19.340Z,26.55
2023-01-19T13:48:46.031Z,6.07
2023-01-19T13:51:12.604Z,5.78
2023-01-19T13:53:40.456Z,11.07
2023-01-19T13:56:07.112Z,7.55
2023-01-19T13:58:33.732Z,7.10
2023-01-19T14:01:00.423Z,11.68
2023-01-19T14:03:27.357Z,6.88
2023-01-19T14:05:54.176Z,10.65
2023-01-19T14:08:20.793Z,6.28
2023-01-19T14:10:47.446Z,7.68
2023-01-19T14:13:14.234Z,10.18
2023-01-19T14:15:40.932Z,8.30
2023-01-19T14:18:07.610Z,8.55
2023-01-19T14:20:36.794Z,7.68
2023-01-19T14:23:03.405Z,9.48
2023-01-19T14:25:30.092Z,6.07
2023-01-19T14:27:56.669Z,9.60
2023-01-19T14:30:25.131Z,8.98
2023-01-19T14:32:52.396Z,11.25
2023-01-19T14:35:18.969Z,7.05
2023-01-19T14:37:47.350Z,8.77
2023-01-19T14:40:14.893Z,9.43
2023-01-19T14:42:41.518Z,9.30
2023-01-19T14:45:08.349Z,12.05
2023-01-19T14:47:35.091Z,7.93
2023-01-19T14:50:01.710Z,8.40
2023-01-19T14:52:28.299Z,8.38
2023-01-19T14:54:54.926Z,8.70
2023-01-19T14:57:21.751Z,10.05
2023-01-19T14:59:49.650Z,10.23
2023-01-19T15:02:16.447Z,9.32
2023-01-19T15:04:43.050Z,8.30
2023-01-19T15:07:09.631Z,10.40
2023-01-19T15:09:36.209Z,7.03
2023-01-19T15:12:02.871Z,10.68
2023-01-19T15:14:29.700Z,6.93
2023-01-19T15:16:56.299Z,5.50
2023-01-19T15:19:22.940Z,6.35
2023-01-19T15:21:49.580Z,7.78
2023-01-19T15:24:18.035Z,9.85
2023-01-19T15:26:44.812Z,9.45
2023-01-19T15:29:11.378Z,8.20
2023-01-19T15:31:38.052Z,9.32
2023-01-19T15:34:04.766Z,7.43
2023-01-19T15:36:31.434Z,10.25
2023-01-19T15:38:58.021Z,9.98
2023-01-19T15:41:24.590Z,12.60
2023-01-19T15:43:52.256Z,8.43
2023-01-19T15:46:18.948Z,10.50
2023-01-19T15:48:45.536Z,9.93
2023-01-19T15:51:12.237Z,8.57
2023-01-19T15:53:41.252Z,9.07
2023-01-19T15:56:07.874Z,9.77
2023-01-19T15:58:34.454Z,9.48
2023-01-19T16:01:01.166Z,8.73
2023-01-19T16:03:28.314Z,6.38
2023-01-19T16:05:54.892Z,8.95
2023-01-19T16:08:22.011Z,6.88
2023-01-19T16:10:48.672Z,8.35
2023-01-19T16:13:16.398Z,12.02
2023-01-19T16:15:43.059Z,13.55
2023-01-19T16:18:09.757Z,11.13
2023-01-19T16:20:36.376Z,11.07
2023-01-19T16:23:14.583Z,8.07
2023-01-19T16:25:41.699Z,11.95
2023-01-19T16:28:08.376Z,6.80
2023-01-19T16:30:35.063Z,8.57
2023-01-19T16:33:01.691Z,10.75
2023-01-19T16:35:28.348Z,14.02
2023-01-19T16:37:55.003Z,7.53
2023-01-19T16:40:21.721Z,7.30
2023-01-19T16:42:51.261Z,6.63
2023-01-19T16:45:17.903Z,5.50
2023-01-19T16:47:46.845Z,7.63
2023-01-19T16:50:13.625Z,10.50
2023-01-19T16:52:40.504Z,10.55
2023-01-19T16:55:25.309Z,10.48
2023-01-19T16:57:52.516Z,17.00
2023-01-19T17:00:19.118Z,14.55
2023-01-19T17:02:45.967Z,11.38
2023-01-19T17:05:12.868Z,16.70
2023-01-19T17:07:39.579Z,12.40
2023-01-19T17:10:06.213Z,11.43
2023-01-19T17:12:33.057Z,13.48
2023-01-19T17:14:59.697Z,9.57
2023-01-19T17:17:26.306Z,8.18
2023-01-19T17:19:52.881Z,13.68
2023-01-19T17:22:19.775Z,11.98
2023-01-19T17:24:46.371Z,12.25
2023-01-19T17:27:12.985Z,10.60
2023-01-19T17:29:39.601Z,11.88
2023-01-19T17:32:06.578Z,10.68
2023-01-19T17:34:33.721Z,12.07
2023-01-19T17:37:03.089Z,8.35
2023-01-19T17:39:29.957Z,10.00
2023-01-19T17:41:56.586Z,8.60
2023-01-19T17:44:23.501Z,10.57
2023-01-19T17:46:50.137Z,8.40
2023-01-19T17:49:16.722Z,8.75
2023-01-19T17:51:43.316Z,9.68
2023-01-19T17:54:11.320Z,12.00
2023-01-19T17:56:38.643Z,8.27
2023-01-19T17:59:06.502Z,8.10
2023-01-19T18:01:33.603Z,6.70
2023-01-19T18:04:02.504Z,11.93
2023-01-19T18:06:29.132Z,9.82
2023-01-19T18:08:55.690Z,8.23
2023-01-19T18:11:22.561Z,11.90
2023-01-19T18:13:49.624Z,10.10
2023-01-19T18:16:16.304Z,8.60
2023-01-19T18:18:44.044Z,10.02
2023-01-19T18:21:10.730Z,8.18
2023-01-19T18:23:37.392Z,10.45
2023-01-19T18:26:04.005Z,7.75
2023-01-19T18:28:30.580Z,12.18
2023-01-19T18:30:57.403Z,9.45
2023-01-19T18:33:25.384Z,10.60
2023-01-19T18:35:51.966Z,9.35
2023-01-19T18:38:18.551Z,11.30
2023-01-19T18:40:45.216Z,11.20
2023-01-19T18:43:14.085Z,11.13
2023-01-19T18:45:41.999Z,12.40
2023-01-19T18:48:09.303Z,13.65
2023-01-19T18:50:35.938Z,11.98
2023-01-19T18:53:02.575Z,10.57
2023-01-19T18:55:29.346Z,8.70
2023-01-19T18:57:55.908Z,11.85
2023-01-19T19:00:22.577Z,11.18
2023-01-19T19:02:50.543Z,14.23
2023-01-19T19:05:17.185Z,11.30
2023-01-19T19:07:43.803Z,15.48
2023-01-19T19:10:10.829Z,15.27
2023-01-19T19:12:37.633Z,13.73
2023-01-19T19:15:04.261Z,14.32
2023-01-19T19:17:31.213Z,11.75
2023-01-19T19:19:57.838Z,17.15
2023-01-19T19:22:25.745Z,14.30
2023-01-19T19:24:52.385Z,13.50
2023-01-19T19:27:18.998Z,9.50
2023-01-19T19:29:45.602Z,12.50
2023-01-19T19:32:12.328Z,15.05
2023-01-19T19:34:39.093Z,19.83
2023-01-19T19:37:05.899Z,19.77
2023-01-19T19:39:32.761Z,15.32
2023-01-19T19:41:59.400Z,14.90
2023-01-19T19:44:26.327Z,11.95
2023-01-19T19:46:52.911Z,13.23
2023-01-19T19:49:21.643Z,17.02
2023-01-19T19:51:48.884Z,11.88
2023-01-19T19:54:15.480Z,15.90
2023-01-19T19:56:42.141Z,18.50
2023-01-19T19:59:08.738Z,19.27
2023-01-19T20:01:35.505Z,17.02
2023-01-19T20:04:03.088Z,17.58
2023-01-19T20:06:29.761Z,15.73
2023-01-19T20:08:56.384Z,15.48
2023-01-19T20:11:22.982Z,14.25
2023-01-19T20:13:50.677Z,13.63
2023-01-19T20:16:17.302Z,15.00
2023-01-19T20:18:43.922Z,15.00
2023-01-19T20:21:10.567Z,17.45
2023-01-19T20:23:37.172Z,13.25
2023-01-19T20:26:03.815Z,12.90
2023-01-19T20:28:30.408Z,16.80
2023-01-19T20:30:57.020Z,15.13
2023-01-19T20:33:23.605Z,15.13
2023-01-19T20:35:51.940Z,13.63
2023-01-19T20:38:18.511Z,13.13
2023-01-19T20:40:45.178Z,19.90
2023-01-19T20:43:11.817Z,14.32
2023-01-19T20:45:38.446Z,15.55
2023-01-19T20:48:05.094Z,14.98
2023-01-19T20:50:31.780Z,20.35
2023-01-19T20:52:58.387Z,23.35
2023-01-19T20:55:24.973Z,19.92
2023-01-19T20:57:51.686Z,17.25
2023-01-19T21:00:18.289Z,18.17
2023-01-19T21:02:44.918Z,14.80
2023-01-19T21:05:11.944Z,21.10
2023-01-19T21:07:38.680Z,16.05
2023-01-19T21:10:05.409Z,17.10
2023-01-19T21:12:32.002Z,15.32
2023-01-19T21:14:58.606Z,17.35
2023-01-19T21:17:25.189Z,13.07
2023-01-19T21:19:51.771Z,17.77
2023-01-19T21:22:18.372Z,13.48
2023-01-19T21:24:44.954Z,19.90
2023-01-19T21:27:11.531Z,13.90
2023-01-19T21:29:38.150Z,15.45
2023-01-19T21:32:04.939Z,13.52
2023-01-19T21:34:31.579Z,12.45
2023-01-19T21:36:58.143Z,13.88
2023-01-19T21:39:24.815Z,9.27
2023-01-19T21:41:51.898Z,13.93
2023-01-19T21:44:18.543Z,15.00
2023-01-19T21:46:45.179Z,13.27
2023-01-19T21:49:11.794Z,11.73
2023-01-19T21:51:38.391Z,14.63
2023-01-19T21:54:05.092Z,15.80
2023-01-19T21:56:31.741Z,8.93
2023-01-19T21:58:58.510Z,15.40
2023-01-19T22:01:25.462Z,19.02
2023-01-19T22:03:52.156Z,15.07
2023-01-19T22:06:18.726Z,14.40
2023-01-19T22:08:46.514Z,11.32
2023-01-19T22:11:13.123Z,16.00
2023-01-19T22:13:39.801Z,11.32
2023-01-19T22:16:08.763Z,11.88
2023-01-19T22:18:36.126Z,10.50
2023-01-19T22:21:02.761Z,10.98
2023-01-19T22:23:29.353Z,13.55
2023-01-19T22:25:55.909Z,11.93
2023-01-19T22:28:22.558Z,18.88
2023-01-19T22:30:49.218Z,15.95
2023-01-19T22:33:16.317Z,13.80
2023-01-19T22:35:43.179Z,9.75
2023-01-19T22:38:09.988Z,10.35
2023-01-19T22:40:36.624Z,11.68
2023-01-19T22:43:03.787Z,13.35
2023-01-19T22:45:30.367Z,12.77
2023-01-19T22:47:57.023Z,11.93
2023-01-19T22:50:23.596Z,14.07
2023-01-19T22:52:50.181Z,13.30
2023-01-19T22:55:16.812Z,12.63
2023-01-19T22:57:43.443Z,11.13
2023-01-19T23:00:10.012Z,10.45
2023-01-19T23:02:36.690Z,11.48
2023-01-19T23:05:03.257Z,13.52
2023-01-19T23:07:29.884Z,10.82
2023-01-19T23:09:56.478Z,10.88
2023-01-19T23:12:23.137Z,10.50
2023-01-19T23:14:49.788Z,16.52
2023-01-19T23:17:16.374Z,11.20
2023-01-19T23:19:42.976Z,9.68
2023-01-19T23:22:09.586Z,10.80
2023-01-19T23:24:36.198Z,11.05
2023-01-19T23:27:02.797Z,10.63
2023-01-19T23:29:29.379Z,8.02
2023-01-19T23:31:56.919Z,9.38
2023-01-19T23:34:23.553Z,9.48
2023-01-19T23:36:50.126Z,10.70
2023-01-19T23:39:16.778Z,8.75
2023-01-19T23:41:43.425Z,12.50
2023-01-19T23:44:10.095Z,11.70
2023-01-19T23:46:36.726Z,10.55
2023-01-19T23:49:03.334Z,9.77
2023-01-19T23:51:29.988Z,9.38
2023-01-19T23:53:56.577Z,6.28
2023-01-19T23:56:23.187Z,15.38
2023-01-19T23:58:49.747Z,8.60
